sensor_id;sensor_type;location;lat;lon;timestamp;P1;durP1;ratioP1;P2;durP2;ratioP2
11187;SDS011;5650;52.700;7.306;2023-06-19T00:00:05;8.57;;;6.20;;
11187;SDS011;5650;52.700;7.306;2023-06-19T00:02:40;9.45;;;5.75;;
11187;SDS011;5650;52.700;7.306;2023-06-19T00:05:08;10.40;;;5.38;;
11187;SDS011;5650;52.700;7.306;2023-06-19T00:07:36;6.82;;;5.93;;
11187;SDS011;5650;52.700;7.306;2023-06-19T00:10:06;6.38;;;5.70;;
11187;SDS011;5650;52.700;7.306;2023-06-19T00:12:35;6.57;;;5.80;;
11187;SDS011;5650;52.700;7.306;2023-06-19T00:15:03;6.95;;;6.15;;
11187;SDS011;5650;52.700;7.306;2023-06-19T00:17:33;8.23;;;5.45;;
11187;SDS011;5650;52.700;7.306;2023-06-19T00:20:05;6.25;;;5.50;;
11187;SDS011;5650;52.700;7.306;2023-06-19T00:22:34;6.82;;;6.13;;
11187;SDS011;5650;52.700;7.306;2023-06-19T00:25:01;7.85;;;6.03;;
11187;SDS011;5650;52.700;7.306;2023-06-19T00:27:38;6.03;;;5.43;;
11187;SDS011;5650;52.700;7.306;2023-06-19T00:30:08;7.80;;;5.70;;
11187;SDS011;5650;52.700;7.306;2023-06-19T00:32:36;10.13;;;5.68;;
11187;SDS011;5650;52.700;7.306;2023-06-19T00:35:11;7.35;;;5.72;;
11187;SDS011;5650;52.700;7.306;2023-06-19T00:37:39;6.50;;;5.80;;
11187;SDS011;5650;52.700;7.306;2023-06-19T00:40:10;7.10;;;6.28;;
11187;SDS011;5650;52.700;7.306;2023-06-19T00:42:44;8.90;;;5.90;;
11187;SDS011;5650;52.700;7.306;2023-06-19T00:45:11;9.70;;;5.43;;
11187;SDS011;5650;52.700;7.306;2023-06-19T00:47:38;6.95;;;6.15;;
11187;SDS011;5650;52.700;7.306;2023-06-19T00:50:06;6.80;;;5.97;;
11187;SDS011;5650;52.700;7.306;2023-06-19T00:52:33;10.65;;;5.60;;
11187;SDS011;5650;52.700;7.306;2023-06-19T00:55:01;6.50;;;5.82;;
11187;SDS011;5650;52.700;7.306;2023-06-19T00:57:29;8.85;;;6.03;;
11187;SDS011;5650;52.700;7.306;2023-06-19T00:59:58;6.13;;;5.50;;
11187;SDS011;5650;52.700;7.306;2023-06-19T01:02:26;8.80;;;6.05;;
11187;SDS011;5650;52.700;7.306;2023-06-19T01:04:53;6.13;;;5.53;;
11187;SDS011;5650;52.700;7.306;2023-06-19T01:07:22;6.68;;;5.78;;
11187;SDS011;5650;52.700;7.306;2023-06-19T01:09:56;6.82;;;5.60;;
11187;SDS011;5650;52.700;7.306;2023-06-19T01:12:30;7.78;;;6.20;;
11187;SDS011;5650;52.700;7.306;2023-06-19T01:15:02;7.28;;;6.00;;
11187;SDS011;5650;52.700;7.306;2023-06-19T01:17:30;6.65;;;5.57;;
11187;SDS011;5650;52.700;7.306;2023-06-19T01:19:58;6.53;;;5.45;;
11187;SDS011;5650;52.700;7.306;2023-06-19T01:22:32;6.38;;;5.78;;
11187;SDS011;5650;52.700;7.306;2023-06-19T01:25:00;7.03;;;6.32;;
11187;SDS011;5650;52.700;7.306;2023-06-19T01:27:27;6.07;;;5.57;;
11187;SDS011;5650;52.700;7.306;2023-06-19T01:29:59;6.13;;;5.53;;
11187;SDS011;5650;52.700;7.306;2023-06-19T01:32:29;6.13;;;5.55;;
11187;SDS011;5650;52.700;7.306;2023-06-19T01:35:00;6.15;;;5.35;;
11187;SDS011;5650;52.700;7.306;2023-06-19T01:37:28;10.65;;;6.07;;
11187;SDS011;5650;52.700;7.306;2023-06-19T01:39:59;7.43;;;5.90;;
11187;SDS011;5650;52.700;7.306;2023-06-19T01:42:30;7.20;;;5.38;;
11187;SDS011;5650;52.700;7.306;2023-06-19T01:45:02;10.25;;;5.85;;
11187;SDS011;5650;52.700;7.306;2023-06-19T01:47:37;9.68;;;5.63;;
11187;SDS011;5650;52.700;7.306;2023-06-19T01:50:04;7.07;;;5.70;;
11187;SDS011;5650;52.700;7.306;2023-06-19T01:52:33;7.70;;;5.85;;
11187;SDS011;5650;52.700;7.306;2023-06-19T01:55:05;6.88;;;5.60;;
11187;SDS011;5650;52.700;7.306;2023-06-19T01:57:34;7.72;;;5.78;;
11187;SDS011;5650;52.700;7.306;2023-06-19T02:00:03;9.48;;;5.78;;
11187;SDS011;5650;52.700;7.306;2023-06-19T02:02:32;6.75;;;5.75;;
11187;SDS011;5650;52.700;7.306;2023-06-19T02:05:00;7.20;;;5.70;;
11187;SDS011;5650;52.700;7.306;2023-06-19T02:07:30;8.93;;;6.28;;
11187;SDS011;5650;52.700;7.306;2023-06-19T02:10:05;10.80;;;6.20;;
11187;SDS011;5650;52.700;7.306;2023-06-19T02:12:33;6.80;;;6.20;;
11187;SDS011;5650;52.700;7.306;2023-06-19T02:15:04;8.15;;;5.93;;
11187;SDS011;5650;52.700;7.306;2023-06-19T02:17:32;8.65;;;6.10;;
11187;SDS011;5650;52.700;7.306;2023-06-19T02:20:02;13.60;;;6.85;;
11187;SDS011;5650;52.700;7.306;2023-06-19T02:22:32;9.90;;;6.15;;
11187;SDS011;5650;52.700;7.306;2023-06-19T02:25:09;6.00;;;5.50;;
11187;SDS011;5650;52.700;7.306;2023-06-19T02:27:36;5.82;;;5.22;;
11187;SDS011;5650;52.700;7.306;2023-06-19T02:30:08;8.48;;;6.13;;
11187;SDS011;5650;52.700;7.306;2023-06-19T02:32:36;11.13;;;6.53;;
11187;SDS011;5650;52.700;7.306;2023-06-19T02:35:06;6.97;;;5.90;;
11187;SDS011;5650;52.700;7.306;2023-06-19T02:37:35;6.95;;;5.72;;
11187;SDS011;5650;52.700;7.306;2023-06-19T02:40:10;7.85;;;5.60;;
11187;SDS011;5650;52.700;7.306;2023-06-19T02:42:37;6.43;;;5.82;;
11187;SDS011;5650;52.700;7.306;2023-06-19T02:45:07;7.45;;;5.82;;
11187;SDS011;5650;52.700;7.306;2023-06-19T02:47:35;9.88;;;6.35;;
11187;SDS011;5650;52.700;7.306;2023-06-19T02:50:09;7.63;;;6.47;;
11187;SDS011;5650;52.700;7.306;2023-06-19T02:52:39;9.70;;;6.32;;
11187;SDS011;5650;52.700;7.306;2023-06-19T02:55:10;6.30;;;5.70;;
11187;SDS011;5650;52.700;7.306;2023-06-19T02:57:37;12.73;;;6.22;;
11187;SDS011;5650;52.700;7.306;2023-06-19T03:00:13;7.07;;;5.68;;
11187;SDS011;5650;52.700;7.306;2023-06-19T03:02:40;7.10;;;5.63;;
11187;SDS011;5650;52.700;7.306;2023-06-19T03:05:11;7.30;;;6.15;;
11187;SDS011;5650;52.700;7.306;2023-06-19T03:07:41;6.03;;;5.38;;
11187;SDS011;5650;52.700;7.306;2023-06-19T03:10:09;6.75;;;5.53;;
11187;SDS011;5650;52.700;7.306;2023-06-19T03:12:36;6.18;;;5.57;;
11187;SDS011;5650;52.700;7.306;2023-06-19T03:15:07;6.63;;;5.32;;
11187;SDS011;5650;52.700;7.306;2023-06-19T03:17:37;6.03;;;5.43;;
11187;SDS011;5650;52.700;7.306;2023-06-19T03:20:04;6.88;;;5.47;;
11187;SDS011;5650;52.700;7.306;2023-06-19T03:22:37;6.20;;;5.60;;
11187;SDS011;5650;52.700;7.306;2023-06-19T03:25:05;6.30;;;5.70;;
11187;SDS011;5650;52.700;7.306;2023-06-19T03:27:34;5.70;;;5.05;;
11187;SDS011;5650;52.700;7.306;2023-06-19T03:30:01;5.85;;;5.35;;
11187;SDS011;5650;52.700;7.306;2023-06-19T03:32:31;6.35;;;5.75;;
11187;SDS011;5650;52.700;7.306;2023-06-19T03:35:03;10.68;;;5.38;;
11187;SDS011;5650;52.700;7.306;2023-06-19T03:37:31;8.27;;;5.15;;
11187;SDS011;5650;52.700;7.306;2023-06-19T03:40:01;6.57;;;5.15;;
11187;SDS011;5650;52.700;7.306;2023-06-19T03:42:40;6.32;;;5.40;;
11187;SDS011;5650;52.700;7.306;2023-06-19T03:45:07;6.55;;;5.25;;
11187;SDS011;5650;52.700;7.306;2023-06-19T03:47:50;6.78;;;5.43;;
11187;SDS011;5650;52.700;7.306;2023-06-19T03:50:20;7.07;;;5.38;;
11187;SDS011;5650;52.700;7.306;2023-06-19T03:52:47;6.00;;;5.50;;
11187;SDS011;5650;52.700;7.306;2023-06-19T03:55:17;12.85;;;5.47;;
11187;SDS011;5650;52.700;7.306;2023-06-19T03:57:46;5.50;;;5.00;;
11187;SDS011;5650;52.700;7.306;2023-06-19T04:00:16;9.02;;;6.07;;
11187;SDS011;5650;52.700;7.306;2023-06-19T04:02:46;6.65;;;5.50;;
11187;SDS011;5650;52.700;7.306;2023-06-19T04:05:14;8.80;;;5.97;;
11187;SDS011;5650;52.700;7.306;2023-06-19T04:07:41;8.25;;;6.05;;
11187;SDS011;5650;52.700;7.306;2023-06-19T04:10:11;7.78;;;5.38;;
11187;SDS011;5650;52.700;7.306;2023-06-19T04:12:38;8.98;;;5.65;;
11187;SDS011;5650;52.700;7.306;2023-06-19T04:15:08;5.70;;;5.20;;
11187;SDS011;5650;52.700;7.306;2023-06-19T04:17:35;6.63;;;5.45;;
11187;SDS011;5650;52.700;7.306;2023-06-19T04:20:11;6.35;;;5.35;;
11187;SDS011;5650;52.700;7.306;2023-06-19T04:22:42;8.68;;;5.13;;
11187;SDS011;5650;52.700;7.306;2023-06-19T04:25:12;6.15;;;5.55;;
11187;SDS011;5650;52.700;7.306;2023-06-19T04:27:39;6.53;;;5.10;;
11187;SDS011;5650;52.700;7.306;2023-06-19T04:30:07;9.20;;;5.32;;
11187;SDS011;5650;52.700;7.306;2023-06-19T04:32:35;6.13;;;5.38;;
11187;SDS011;5650;52.700;7.306;2023-06-19T04:35:08;5.40;;;4.90;;
11187;SDS011;5650;52.700;7.306;2023-06-19T04:37:47;7.90;;;4.90;;
11187;SDS011;5650;52.700;7.306;2023-06-19T04:40:18;7.65;;;5.50;;
11187;SDS011;5650;52.700;7.306;2023-06-19T04:42:45;6.30;;;4.88;;
11187;SDS011;5650;52.700;7.306;2023-06-19T04:45:20;5.28;;;4.72;;
11187;SDS011;5650;52.700;7.306;2023-06-19T04:47:50;9.85;;;4.32;;
11187;SDS011;5650;52.700;7.306;2023-06-19T04:50:22;6.80;;;5.07;;
11187;SDS011;5650;52.700;7.306;2023-06-19T04:52:49;6.35;;;4.88;;
11187;SDS011;5650;52.700;7.306;2023-06-19T04:55:17;6.22;;;4.78;;
11187;SDS011;5650;52.700;7.306;2023-06-19T04:57:44;8.15;;;4.55;;
11187;SDS011;5650;52.700;7.306;2023-06-19T05:00:16;5.00;;;4.28;;
11187;SDS011;5650;52.700;7.306;2023-06-19T05:02:45;7.35;;;4.75;;
11187;SDS011;5650;52.700;7.306;2023-06-19T05:05:13;13.18;;;5.00;;
11187;SDS011;5650;52.700;7.306;2023-06-19T05:07:44;6.78;;;4.45;;
11187;SDS011;5650;52.700;7.306;2023-06-19T05:10:11;5.10;;;4.13;;
11187;SDS011;5650;52.700;7.306;2023-06-19T05:12:38;5.25;;;4.65;;
11187;SDS011;5650;52.700;7.306;2023-06-19T05:15:08;5.18;;;4.45;;
11187;SDS011;5650;52.700;7.306;2023-06-19T05:17:36;6.68;;;4.50;;
11187;SDS011;5650;52.700;7.306;2023-06-19T05:20:07;7.38;;;4.50;;
11187;SDS011;5650;52.700;7.306;2023-06-19T05:22:36;6.60;;;4.78;;
11187;SDS011;5650;52.700;7.306;2023-06-19T05:25:04;6.07;;;4.22;;
11187;SDS011;5650;52.700;7.306;2023-06-19T05:27:32;6.13;;;4.95;;
11187;SDS011;5650;52.700;7.306;2023-06-19T05:29:59;5.63;;;4.30;;
11187;SDS011;5650;52.700;7.306;2023-06-19T05:32:32;5.18;;;4.10;;
11187;SDS011;5650;52.700;7.306;2023-06-19T05:35:02;5.57;;;4.35;;
11187;SDS011;5650;52.700;7.306;2023-06-19T05:37:34;5.47;;;4.68;;
11187;SDS011;5650;52.700;7.306;2023-06-19T05:40:03;6.53;;;4.10;;
11187;SDS011;5650;52.700;7.306;2023-06-19T05:42:37;6.93;;;3.95;;
11187;SDS011;5650;52.700;7.306;2023-06-19T05:45:04;5.47;;;3.47;;
11187;SDS011;5650;52.700;7.306;2023-06-19T05:47:47;3.53;;;3.20;;
11187;SDS011;5650;52.700;7.306;2023-06-19T05:50:15;7.78;;;3.10;;
11187;SDS011;5650;52.700;7.306;2023-06-19T05:52:43;3.85;;;3.13;;
11187;SDS011;5650;52.700;7.306;2023-06-19T05:55:10;4.18;;;3.28;;
11187;SDS011;5650;52.700;7.306;2023-06-19T05:57:38;8.00;;;3.63;;
11187;SDS011;5650;52.700;7.306;2023-06-19T06:00:14;6.25;;;2.95;;
11187;SDS011;5650;52.700;7.306;2023-06-19T06:02:42;6.57;;;3.20;;
11187;SDS011;5650;52.700;7.306;2023-06-19T06:05:17;7.07;;;2.78;;
11187;SDS011;5650;52.700;7.306;2023-06-19T06:07:47;4.60;;;3.17;;
11187;SDS011;5650;52.700;7.306;2023-06-19T06:10:14;4.18;;;3.15;;
11187;SDS011;5650;52.700;7.306;2023-06-19T06:12:42;4.22;;;3.00;;
11187;SDS011;5650;52.700;7.306;2023-06-19T06:15:09;5.07;;;2.65;;
11187;SDS011;5650;52.700;7.306;2023-06-19T06:17:39;5.70;;;2.72;;
11187;SDS011;5650;52.700;7.306;2023-06-19T06:20:07;7.93;;;2.55;;
11187;SDS011;5650;52.700;7.306;2023-06-19T06:22:40;5.20;;;3.10;;
11187;SDS011;5650;52.700;7.306;2023-06-19T06:25:11;6.07;;;2.83;;
11187;SDS011;5650;52.700;7.306;2023-06-19T06:30:21;3.67;;;2.55;;
11187;SDS011;5650;52.700;7.306;2023-06-19T06:32:48;7.78;;;2.80;;
11187;SDS011;5650;52.700;7.306;2023-06-19T06:35:16;5.22;;;2.60;;
11187;SDS011;5650;52.700;7.306;2023-06-19T06:37:43;5.82;;;2.75;;
11187;SDS011;5650;52.700;7.306;2023-06-19T06:40:13;2.75;;;2.47;;
11187;SDS011;5650;52.700;7.306;2023-06-19T06:42:47;5.93;;;2.50;;
11187;SDS011;5650;52.700;7.306;2023-06-19T06:45:14;3.55;;;2.50;;
11187;SDS011;5650;52.700;7.306;2023-06-19T06:47:44;2.83;;;2.63;;
11187;SDS011;5650;52.700;7.306;2023-06-19T06:50:12;3.17;;;2.60;;
11187;SDS011;5650;52.700;7.306;2023-06-19T06:52:39;3.33;;;2.35;;
11187;SDS011;5650;52.700;7.306;2023-06-19T06:55:06;4.60;;;2.83;;
11187;SDS011;5650;52.700;7.306;2023-06-19T06:57:36;4.25;;;2.50;;
11187;SDS011;5650;52.700;7.306;2023-06-19T07:00:07;2.72;;;2.17;;
11187;SDS011;5650;52.700;7.306;2023-06-19T07:02:39;4.60;;;2.35;;
11187;SDS011;5650;52.700;7.306;2023-06-19T07:05:09;3.17;;;2.40;;
11187;SDS011;5650;52.700;7.306;2023-06-19T07:07:37;3.60;;;2.58;;
11187;SDS011;5650;52.700;7.306;2023-06-19T07:10:04;3.10;;;2.60;;
11187;SDS011;5650;52.700;7.306;2023-06-19T07:12:32;2.42;;;2.05;;
11187;SDS011;5650;52.700;7.306;2023-06-19T07:15:01;3.28;;;2.30;;
11187;SDS011;5650;52.700;7.306;2023-06-19T07:17:32;5.55;;;2.40;;
11187;SDS011;5650;52.700;7.306;2023-06-19T07:20:02;3.00;;;2.55;;
11187;SDS011;5650;52.700;7.306;2023-06-19T07:22:33;3.40;;;2.30;;
11187;SDS011;5650;52.700;7.306;2023-06-19T07:25:03;2.40;;;2.20;;
11187;SDS011;5650;52.700;7.306;2023-06-19T07:27:37;3.53;;;2.70;;
11187;SDS011;5650;52.700;7.306;2023-06-19T07:30:09;5.10;;;2.80;;
11187;SDS011;5650;52.700;7.306;2023-06-19T07:32:37;7.32;;;2.13;;
11187;SDS011;5650;52.700;7.306;2023-06-19T07:35:04;5.93;;;2.42;;
11187;SDS011;5650;52.700;7.306;2023-06-19T07:37:32;3.42;;;2.90;;
11187;SDS011;5650;52.700;7.306;2023-06-19T07:40:03;6.43;;;2.90;;
11187;SDS011;5650;52.700;7.306;2023-06-19T07:42:30;3.28;;;2.53;;
11187;SDS011;5650;52.700;7.306;2023-06-19T07:44:58;2.67;;;2.47;;
11187;SDS011;5650;52.700;7.306;2023-06-19T07:47:27;3.85;;;2.78;;
11187;SDS011;5650;52.700;7.306;2023-06-19T07:49:54;4.72;;;3.08;;
11187;SDS011;5650;52.700;7.306;2023-06-19T07:52:21;5.32;;;2.92;;
11187;SDS011;5650;52.700;7.306;2023-06-19T07:54:50;6.72;;;2.95;;
11187;SDS011;5650;52.700;7.306;2023-06-19T07:57:18;3.03;;;2.50;;
11187;SDS011;5650;52.700;7.306;2023-06-19T07:59:46;5.55;;;3.08;;
11187;SDS011;5650;52.700;7.306;2023-06-19T08:02:13;5.50;;;3.00;;
11187;SDS011;5650;52.700;7.306;2023-06-19T08:04:44;3.88;;;3.47;;
11187;SDS011;5650;52.700;7.306;2023-06-19T08:07:14;6.03;;;3.08;;
11187;SDS011;5650;52.700;7.306;2023-06-19T08:09:42;3.83;;;2.75;;
11187;SDS011;5650;52.700;7.306;2023-06-19T08:12:18;8.75;;;3.53;;
11187;SDS011;5650;52.700;7.306;2023-06-19T08:14:46;6.90;;;3.10;;
11187;SDS011;5650;52.700;7.306;2023-06-19T08:17:13;4.32;;;2.70;;
11187;SDS011;5650;52.700;7.306;2023-06-19T08:19:42;7.40;;;2.92;;
11187;SDS011;5650;52.700;7.306;2023-06-19T08:22:12;5.78;;;3.22;;
11187;SDS011;5650;52.700;7.306;2023-06-19T08:24:42;4.55;;;3.05;;
11187;SDS011;5650;52.700;7.306;2023-06-19T08:27:09;5.82;;;3.28;;
11187;SDS011;5650;52.700;7.306;2023-06-19T08:29:41;4.63;;;3.80;;
11187;SDS011;5650;52.700;7.306;2023-06-19T08:32:11;7.43;;;3.88;;
11187;SDS011;5650;52.700;7.306;2023-06-19T08:34:38;3.72;;;3.25;;
11187;SDS011;5650;52.700;7.306;2023-06-19T08:37:16;4.38;;;3.83;;
11187;SDS011;5650;52.700;7.306;2023-06-19T08:39:46;5.30;;;3.65;;
11187;SDS011;5650;52.700;7.306;2023-06-19T08:42:16;3.38;;;3.08;;
11187;SDS011;5650;52.700;7.306;2023-06-19T08:44:44;4.43;;;3.20;;
11187;SDS011;5650;52.700;7.306;2023-06-19T08:47:14;6.95;;;3.50;;
11187;SDS011;5650;52.700;7.306;2023-06-19T08:49:42;3.05;;;2.80;;
11187;SDS011;5650;52.700;7.306;2023-06-19T08:52:09;7.05;;;3.72;;
11187;SDS011;5650;52.700;7.306;2023-06-19T08:54:38;5.13;;;2.90;;
11187;SDS011;5650;52.700;7.306;2023-06-19T08:57:09;4.18;;;3.05;;
11187;SDS011;5650;52.700;7.306;2023-06-19T08:59:37;9.90;;;3.90;;
11187;SDS011;5650;52.700;7.306;2023-06-19T09:02:04;4.15;;;3.00;;
11187;SDS011;5650;52.700;7.306;2023-06-19T09:04:32;3.40;;;3.10;;
11187;SDS011;5650;52.700;7.306;2023-06-19T09:07:00;6.38;;;3.65;;
11187;SDS011;5650;52.700;7.306;2023-06-19T09:09:33;4.10;;;3.70;;
11187;SDS011;5650;52.700;7.306;2023-06-19T09:12:02;8.15;;;3.92;;
11187;SDS011;5650;52.700;7.306;2023-06-19T09:14:31;5.28;;;3.65;;
11187;SDS011;5650;52.700;7.306;2023-06-19T09:17:00;4.95;;;3.50;;
11187;SDS011;5650;52.700;7.306;2023-06-19T09:19:28;4.85;;;3.80;;
11187;SDS011;5650;52.700;7.306;2023-06-19T09:22:06;5.38;;;3.40;;
11187;SDS011;5650;52.700;7.306;2023-06-19T09:24:36;5.75;;;3.60;;
11187;SDS011;5650;52.700;7.306;2023-06-19T09:27:17;4.57;;;3.33;;
11187;SDS011;5650;52.700;7.306;2023-06-19T09:29:46;3.63;;;3.33;;
11187;SDS011;5650;52.700;7.306;2023-06-19T09:32:15;7.15;;;3.13;;
11187;SDS011;5650;52.700;7.306;2023-06-19T09:34:43;3.45;;;3.03;;
11187;SDS011;5650;52.700;7.306;2023-06-19T09:37:13;7.38;;;3.30;;
11187;SDS011;5650;52.700;7.306;2023-06-19T09:39:51;3.28;;;2.88;;
11187;SDS011;5650;52.700;7.306;2023-06-19T09:42:21;3.53;;;2.80;;
11187;SDS011;5650;52.700;7.306;2023-06-19T09:44:54;3.47;;;3.17;;
11187;SDS011;5650;52.700;7.306;2023-06-19T09:47:25;5.10;;;2.78;;
11187;SDS011;5650;52.700;7.306;2023-06-19T09:49:57;11.65;;;3.10;;
11187;SDS011;5650;52.700;7.306;2023-06-19T09:52:33;4.13;;;2.85;;
11187;SDS011;5650;52.700;7.306;2023-06-19T09:55:02;5.47;;;2.70;;
11187;SDS011;5650;52.700;7.306;2023-06-19T09:57:37;3.55;;;3.00;;
11187;SDS011;5650;52.700;7.306;2023-06-19T10:00:05;3.53;;;2.83;;
11187;SDS011;5650;52.700;7.306;2023-06-19T10:02:37;3.10;;;2.80;;
11187;SDS011;5650;52.700;7.306;2023-06-19T10:05:09;6.28;;;3.03;;
11187;SDS011;5650;52.700;7.306;2023-06-19T10:07:41;6.13;;;3.13;;
11187;SDS011;5650;52.700;7.306;2023-06-19T10:10:09;11.43;;;3.17;;
11187;SDS011;5650;52.700;7.306;2023-06-19T10:12:41;3.92;;;3.20;;
11187;SDS011;5650;52.700;7.306;2023-06-19T10:15:16;6.47;;;3.22;;
11187;SDS011;5650;52.700;7.306;2023-06-19T10:17:52;5.15;;;2.88;;
11187;SDS011;5650;52.700;7.306;2023-06-19T10:20:25;4.00;;;3.40;;
11187;SDS011;5650;52.700;7.306;2023-06-19T10:22:58;3.17;;;2.88;;
11187;SDS011;5650;52.700;7.306;2023-06-19T10:25:30;11.15;;;3.30;;
11187;SDS011;5650;52.700;7.306;2023-06-19T10:27:59;4.63;;;3.20;;
11187;SDS011;5650;52.700;7.306;2023-06-19T10:30:28;5.75;;;3.42;;
11187;SDS011;5650;52.700;7.306;2023-06-19T10:32:55;5.43;;;3.45;;
11187;SDS011;5650;52.700;7.306;2023-06-19T10:35:23;5.40;;;3.63;;
11187;SDS011;5650;52.700;7.306;2023-06-19T10:37:51;3.90;;;3.17;;
11187;SDS011;5650;52.700;7.306;2023-06-19T10:40:18;4.63;;;3.60;;
11187;SDS011;5650;52.700;7.306;2023-06-19T10:42:45;6.15;;;3.17;;
11187;SDS011;5650;52.700;7.306;2023-06-19T10:45:24;3.80;;;3.40;;
11187;SDS011;5650;52.700;7.306;2023-06-19T10:48:01;4.85;;;3.22;;
11187;SDS011;5650;52.700;7.306;2023-06-19T10:50:29;7.88;;;4.00;;
11187;SDS011;5650;52.700;7.306;2023-06-19T10:53:03;3.55;;;3.05;;
11187;SDS011;5650;52.700;7.306;2023-06-19T10:55:30;4.07;;;3.50;;
11187;SDS011;5650;52.700;7.306;2023-06-19T10:57:57;8.38;;;3.42;;
11187;SDS011;5650;52.700;7.306;2023-06-19T11:00:26;5.63;;;3.72;;
11187;SDS011;5650;52.700;7.306;2023-06-19T11:02:55;4.07;;;3.70;;
11187;SDS011;5650;52.700;7.306;2023-06-19T11:05:24;5.30;;;3.80;;
11187;SDS011;5650;52.700;7.306;2023-06-19T11:07:52;7.35;;;4.53;;
11187;SDS011;5650;52.700;7.306;2023-06-19T11:10:24;5.47;;;4.38;;
11187;SDS011;5650;52.700;7.306;2023-06-19T11:12:53;4.80;;;4.25;;
11187;SDS011;5650;52.700;7.306;2023-06-19T11:15:29;5.35;;;4.18;;
11187;SDS011;5650;52.700;7.306;2023-06-19T11:17:57;8.25;;;4.55;;
11187;SDS011;5650;52.700;7.306;2023-06-19T11:20:24;10.10;;;5.28;;
11187;SDS011;5650;52.700;7.306;2023-06-19T11:22:54;4.82;;;4.40;;
11187;SDS011;5650;52.700;7.306;2023-06-19T11:25:33;7.57;;;4.60;;
11187;SDS011;5650;52.700;7.306;2023-06-19T11:28:02;5.65;;;4.57;;
11187;SDS011;5650;52.700;7.306;2023-06-19T11:30:32;5.15;;;4.68;;
11187;SDS011;5650;52.700;7.306;2023-06-19T11:33:00;8.27;;;5.28;;
11187;SDS011;5650;52.700;7.306;2023-06-19T11:35:32;6.65;;;5.32;;
11187;SDS011;5650;52.700;7.306;2023-06-19T11:38:01;6.45;;;5.32;;
11187;SDS011;5650;52.700;7.306;2023-06-19T11:40:28;6.05;;;5.18;;
11187;SDS011;5650;52.700;7.306;2023-06-19T11:43:05;9.52;;;5.32;;
11187;SDS011;5650;52.700;7.306;2023-06-19T11:45:51;10.45;;;5.55;;
11187;SDS011;5650;52.700;7.306;2023-06-19T11:48:22;5.60;;;5.00;;
11187;SDS011;5650;52.700;7.306;2023-06-19T11:50:50;7.18;;;5.18;;
11187;SDS011;5650;52.700;7.306;2023-06-19T11:53:21;9.05;;;5.50;;
11187;SDS011;5650;52.700;7.306;2023-06-19T11:55:53;6.55;;;4.82;;
11187;SDS011;5650;52.700;7.306;2023-06-19T11:58:23;6.40;;;4.82;;
11187;SDS011;5650;52.700;7.306;2023-06-19T12:00:53;7.80;;;5.15;;
11187;SDS011;5650;52.700;7.306;2023-06-19T12:03:21;17.90;;;5.65;;
11187;SDS011;5650;52.700;7.306;2023-06-19T12:05:52;6.00;;;5.40;;
11187;SDS011;5650;52.700;7.306;2023-06-19T12:08:24;6.38;;;5.53;;
11187;SDS011;5650;52.700;7.306;2023-06-19T12:10:56;74.63;;;20.73;;
11187;SDS011;5650;52.700;7.306;2023-06-19T12:13:24;5.93;;;5.40;;
11187;SDS011;5650;52.700;7.306;2023-06-19T12:15:55;6.97;;;5.03;;
11187;SDS011;5650;52.700;7.306;2023-06-19T12:18:22;8.18;;;5.22;;
11187;SDS011;5650;52.700;7.306;2023-06-19T12:20:53;6.90;;;5.53;;
11187;SDS011;5650;52.700;7.306;2023-06-19T12:23:21;10.88;;;5.75;;
11187;SDS011;5650;52.700;7.306;2023-06-19T12:25:48;11.52;;;5.72;;
11187;SDS011;5650;52.700;7.306;2023-06-19T12:28:15;10.23;;;5.40;;
11187;SDS011;5650;52.700;7.306;2023-06-19T12:30:43;7.65;;;4.53;;
11187;SDS011;5650;52.700;7.306;2023-06-19T12:33:15;13.60;;;5.20;;
11187;SDS011;5650;52.700;7.306;2023-06-19T12:35:43;8.70;;;4.82;;
11187;SDS011;5650;52.700;7.306;2023-06-19T12:38:11;7.60;;;5.57;;
11187;SDS011;5650;52.700;7.306;2023-06-19T12:40:38;7.15;;;5.63;;
11187;SDS011;5650;52.700;7.306;2023-06-19T12:43:05;9.70;;;5.20;;
11187;SDS011;5650;52.700;7.306;2023-06-19T12:45:43;9.13;;;4.80;;
11187;SDS011;5650;52.700;7.306;2023-06-19T12:48:27;9.27;;;5.53;;
11187;SDS011;5650;52.700;7.306;2023-06-19T12:50:58;6.60;;;5.35;;
11187;SDS011;5650;52.700;7.306;2023-06-19T12:53:25;9.52;;;5.55;;
11187;SDS011;5650;52.700;7.306;2023-06-19T12:55:57;5.50;;;4.72;;
11187;SDS011;5650;52.700;7.306;2023-06-19T12:58:25;9.05;;;5.70;;
11187;SDS011;5650;52.700;7.306;2023-06-19T13:00:58;5.53;;;5.03;;
11187;SDS011;5650;52.700;7.306;2023-06-19T13:03:25;8.52;;;5.35;;
11187;SDS011;5650;52.700;7.306;2023-06-19T13:05:54;10.20;;;5.45;;
11187;SDS011;5650;52.700;7.306;2023-06-19T13:08:21;9.02;;;5.15;;
11187;SDS011;5650;52.700;7.306;2023-06-19T13:10:48;8.13;;;5.03;;
11187;SDS011;5650;52.700;7.306;2023-06-19T13:13:26;9.93;;;6.53;;
11187;SDS011;5650;52.700;7.306;2023-06-19T13:15:53;8.18;;;5.43;;
11187;SDS011;5650;52.700;7.306;2023-06-19T13:18:22;6.68;;;5.40;;
11187;SDS011;5650;52.700;7.306;2023-06-19T13:20:51;8.98;;;6.10;;
11187;SDS011;5650;52.700;7.306;2023-06-19T13:23:21;8.88;;;5.25;;
11187;SDS011;5650;52.700;7.306;2023-06-19T13:25:49;10.40;;;4.68;;
11187;SDS011;5650;52.700;7.306;2023-06-19T13:28:16;11.18;;;6.28;;
11187;SDS011;5650;52.700;7.306;2023-06-19T13:30:43;8.80;;;6.05;;
11187;SDS011;5650;52.700;7.306;2023-06-19T13:33:10;11.63;;;5.60;;
11187;SDS011;5650;52.700;7.306;2023-06-19T13:35:38;9.23;;;6.28;;
11187;SDS011;5650;52.700;7.306;2023-06-19T13:38:09;6.30;;;4.80;;
11187;SDS011;5650;52.700;7.306;2023-06-19T13:40:37;10.15;;;5.68;;
11187;SDS011;5650;52.700;7.306;2023-06-19T13:43:04;9.55;;;6.05;;
11187;SDS011;5650;52.700;7.306;2023-06-19T13:45:31;8.57;;;5.38;;
11187;SDS011;5650;52.700;7.306;2023-06-19T13:47:59;7.20;;;5.63;;
11187;SDS011;5650;52.700;7.306;2023-06-19T13:50:27;8.27;;;6.28;;
11187;SDS011;5650;52.700;7.306;2023-06-19T13:52:54;8.13;;;6.03;;
11187;SDS011;5650;52.700;7.306;2023-06-19T13:55:23;7.53;;;5.47;;
11187;SDS011;5650;52.700;7.306;2023-06-19T13:57:50;9.35;;;7.00;;
11187;SDS011;5650;52.700;7.306;2023-06-19T14:00:18;7.65;;;6.22;;
11187;SDS011;5650;52.700;7.306;2023-06-19T14:02:46;7.85;;;5.97;;
11187;SDS011;5650;52.700;7.306;2023-06-19T14:05:18;6.88;;;5.88;;
11187;SDS011;5650;52.700;7.306;2023-06-19T14:07:45;8.90;;;5.90;;
11187;SDS011;5650;52.700;7.306;2023-06-19T14:10:12;6.70;;;5.88;;
11187;SDS011;5650;52.700;7.306;2023-06-19T14:12:41;7.00;;;6.25;;
11187;SDS011;5650;52.700;7.306;2023-06-19T14:15:08;9.63;;;7.00;;
11187;SDS011;5650;52.700;7.306;2023-06-19T14:17:36;11.18;;;7.47;;
11187;SDS011;5650;52.700;7.306;2023-06-19T14:20:03;8.70;;;7.10;;
11187;SDS011;5650;52.700;7.306;2023-06-19T14:22:32;8.55;;;6.45;;
11187;SDS011;5650;52.700;7.306;2023-06-19T14:25:01;7.35;;;5.80;;
11187;SDS011;5650;52.700;7.306;2023-06-19T14:27:29;8.77;;;6.45;;
11187;SDS011;5650;52.700;7.306;2023-06-19T14:29:57;10.25;;;6.00;;
11187;SDS011;5650;52.700;7.306;2023-06-19T14:32:31;11.05;;;5.93;;
11187;SDS011;5650;52.700;7.306;2023-06-19T14:35:04;8.57;;;5.93;;
11187;SDS011;5650;52.700;7.306;2023-06-19T14:37:37;10.60;;;6.53;;
11187;SDS011;5650;52.700;7.306;2023-06-19T14:40:08;7.32;;;6.35;;
11187;SDS011;5650;52.700;7.306;2023-06-19T14:42:35;6.30;;;5.70;;
11187;SDS011;5650;52.700;7.306;2023-06-19T14:45:08;14.68;;;6.55;;
11187;SDS011;5650;52.700;7.306;2023-06-19T14:47:36;7.22;;;5.53;;
11187;SDS011;5650;52.700;7.306;2023-06-19T14:50:06;6.30;;;5.70;;
11187;SDS011;5650;52.700;7.306;2023-06-19T14:52:37;9.15;;;5.95;;
11187;SDS011;5650;52.700;7.306;2023-06-19T14:55:04;8.23;;;5.32;;
11187;SDS011;5650;52.700;7.306;2023-06-19T14:57:37;7.88;;;5.85;;
11187;SDS011;5650;52.700;7.306;2023-06-19T15:00:09;7.72;;;6.00;;
11187;SDS011;5650;52.700;7.306;2023-06-19T15:02:37;13.07;;;5.82;;
11187;SDS011;5650;52.700;7.306;2023-06-19T15:05:05;6.95;;;5.40;;
11187;SDS011;5650;52.700;7.306;2023-06-19T15:07:33;7.75;;;5.53;;
11187;SDS011;5650;52.700;7.306;2023-06-19T15:10:07;11.27;;;6.57;;
11187;SDS011;5650;52.700;7.306;2023-06-19T15:12:38;7.43;;;5.85;;
11187;SDS011;5650;52.700;7.306;2023-06-19T15:15:06;11.40;;;6.25;;
11187;SDS011;5650;52.700;7.306;2023-06-19T15:17:35;11.45;;;7.00;;